createdAt,value
2022-11-09T00:02:41.519Z,8.73
2022-11-09T00:05:59.656Z,8.72
2022-11-09T00:09:09.746Z,8.73
2022-11-09T00:12:13.029Z,8.71
2022-11-09T00:15:15.784Z,8.70
2022-11-09T00:18:18.895Z,8.70
2022-11-09T00:21:23.676Z,8.69
2022-11-09T00:24:27.149Z,8.70
2022-11-09T00:27:32.893Z,8.69
2022-11-09T00:30:35.765Z,8.67
2022-11-09T00:33:38.746Z,8.65
2022-11-09T00:36:42.083Z,8.65
2022-11-09T00:39:44.715Z,8.64
2022-11-09T00:42:47.856Z,8.62
2022-11-09T00:45:52.249Z,8.62
2022-11-09T00:48:56.214Z,8.64
2022-11-09T00:51:59.330Z,8.61
2022-11-09T00:55:02.840Z,8.59
2022-11-09T00:58:05.513Z,8.53
2022-11-09T01:01:12.084Z,8.50
2022-11-09T01:04:17.228Z,8.48
2022-11-09T01:07:20.392Z,8.49
2022-11-09T01:10:23.431Z,8.36
2022-11-09T01:13:27.206Z,8.32
2022-11-09T01:16:30.118Z,8.27
2022-11-09T01:19:33.185Z,8.23
2022-11-09T01:22:35.808Z,8.22
2022-11-09T01:25:39.678Z,8.17
2022-11-09T01:28:43.893Z,8.14
2022-11-09T01:31:48.962Z,8.12
2022-11-09T01:34:51.619Z,8.11
2022-11-09T01:37:55.029Z,8.10
2022-11-09T01:40:57.799Z,8.09
2022-11-09T01:44:14.940Z,8.12
2022-11-09T01:47:25.527Z,8.12
2022-11-09T01:50:36.333Z,8.10
2022-11-09T01:53:44.338Z,8.11
2022-11-09T01:56:51.882Z,8.10
2022-11-09T02:00:01.430Z,8.11
2022-11-09T02:03:09.897Z,8.10
2022-11-09T02:06:16.884Z,8.11
2022-11-09T02:09:38.603Z,8.11
2022-11-09T02:12:41.708Z,8.11
2022-11-09T02:15:46.235Z,8.13
2022-11-09T02:18:54.888Z,8.11
2022-11-09T02:21:59.895Z,8.13
2022-11-09T02:25:04.545Z,8.09
2022-11-09T02:28:08.117Z,8.10
2022-11-09T02:31:16.125Z,8.09
2022-11-09T02:34:21.301Z,8.07
2022-11-09T02:37:37.416Z,8.07
2022-11-09T02:40:44.268Z,8.10
2022-11-09T02:43:50.942Z,8.11
2022-11-09T02:46:54.026Z,8.11
2022-11-09T02:50:00.033Z,8.11
2022-11-09T02:53:04.315Z,8.09
2022-11-09T02:56:08.073Z,8.08
2022-11-09T02:59:10.834Z,8.04
2022-11-09T03:02:14.462Z,8.06
2022-11-09T03:05:17.444Z,8.06
2022-11-09T03:08:20.751Z,8.06
2022-11-09T03:11:24.829Z,8.08
2022-11-09T03:14:28.680Z,8.11
2022-11-09T03:17:32.392Z,8.13
2022-11-09T03:20:35.801Z,8.13
2022-11-09T03:23:40.001Z,8.14
2022-11-09T03:26:42.805Z,8.15
2022-11-09T03:29:46.046Z,8.17
2022-11-09T03:32:50.697Z,8.20
2022-11-09T03:35:54.120Z,8.22
2022-11-09T03:38:58.163Z,8.20
2022-11-09T03:42:01.268Z,8.19
2022-11-09T03:45:05.675Z,8.14
2022-11-09T03:48:08.254Z,8.14
2022-11-09T03:51:11.055Z,8.15
2022-11-09T03:54:13.610Z,8.13
2022-11-09T03:57:16.616Z,8.07
2022-11-09T04:00:25.636Z,8.09
2022-11-09T04:03:33.150Z,8.06
2022-11-09T04:06:36.981Z,8.08
2022-11-09T04:09:40.549Z,8.03
2022-11-09T04:12:43.160Z,8.06
2022-11-09T04:15:46.719Z,8.07
2022-11-09T04:18:49.437Z,8.07
2022-11-09T04:21:52.233Z,8.08
2022-11-09T04:24:55.695Z,8.08
2022-11-09T04:28:01.262Z,8.05
2022-11-09T04:31:05.847Z,8.02
2022-11-09T04:34:08.613Z,8.00
2022-11-09T04:37:11.892Z,8.01
2022-11-09T04:40:15.040Z,8.00
2022-11-09T04:43:17.884Z,8.03
2022-11-09T04:46:22.925Z,8.02
2022-11-09T04:49:26.679Z,8.00
2022-11-09T04:52:31.720Z,7.97
2022-11-09T04:55:37.832Z,7.96
2022-11-09T04:58:42.415Z,7.95
2022-11-09T05:01:49.679Z,7.97
2022-11-09T05:04:56.723Z,7.94
2022-11-09T05:07:59.372Z,7.90
2022-11-09T05:11:03.037Z,7.89
2022-11-09T05:14:06.660Z,7.89
2022-11-09T05:17:10.339Z,7.88
2022-11-09T05:20:14.466Z,7.86
2022-11-09T05:23:36.515Z,7.89
2022-11-09T05:26:41.327Z,7.89
2022-11-09T05:29:45.183Z,7.89
2022-11-09T05:32:48.494Z,7.86
2022-11-09T05:35:55.373Z,7.82
2022-11-09T05:39:00.782Z,7.84
2022-11-09T05:42:04.136Z,7.82
2022-11-09T05:45:41.010Z,7.80
2022-11-09T05:48:38.377Z,7.82
2022-11-09T05:51:41.542Z,7.80
2022-11-09T05:54:44.877Z,7.80
2022-11-09T05:57:47.907Z,7.75
2022-11-09T06:00:53.731Z,7.74
2022-11-09T06:03:58.821Z,7.62
2022-11-09T06:07:04.726Z,7.57
2022-11-09T06:10:09.229Z,7.56
2022-11-09T06:13:12.615Z,7.55
2022-11-09T06:16:19.383Z,7.51
2022-11-09T06:19:30.021Z,7.54
2022-11-09T06:22:33.764Z,7.54
2022-11-09T06:25:36.780Z,7.50
2022-11-09T06:28:48.067Z,7.48
2022-11-09T06:31:51.446Z,7.49
2022-11-09T06:34:55.116Z,7.48
2022-11-09T06:38:01.873Z,7.42
2022-11-09T06:41:06.642Z,7.42
2022-11-09T06:44:10.201Z,7.35
2022-11-09T06:47:14.916Z,7.29
2022-11-09T06:50:17.822Z,7.35
2022-11-09T06:53:21.073Z,7.28
2022-11-09T06:56:24.213Z,7.27
2022-11-09T06:59:30.694Z,7.27
2022-11-09T07:02:34.095Z,7.30
2022-11-09T07:05:40.363Z,7.30
2022-11-09T07:08:44.661Z,7.30
2022-11-09T07:11:50.040Z,7.36
2022-11-09T07:14:54.596Z,7.40
2022-11-09T07:18:00.746Z,7.41
2022-11-09T07:21:13.844Z,7.36
2022-11-09T07:24:17.515Z,7.32
2022-11-09T07:27:28.305Z,7.39
2022-11-09T07:30:43.638Z,7.39
2022-11-09T07:33:50.728Z,7.42
2022-11-09T07:36:55.677Z,7.47
2022-11-09T07:39:59.269Z,7.48
2022-11-09T07:43:06.394Z,7.52
2022-11-09T07:46:19.059Z,7.53
2022-11-09T07:49:22.271Z,7.55
2022-11-09T07:52:32.933Z,7.59
2022-11-09T07:55:38.620Z,7.59
2022-11-09T07:58:41.916Z,7.71
2022-11-09T08:01:47.842Z,7.73
2022-11-09T08:04:51.274Z,7.77
2022-11-09T08:08:02.818Z,7.76
2022-11-09T08:11:06.179Z,7.83
2022-11-09T08:14:10.443Z,7.90
2022-11-09T08:17:14.259Z,7.91
2022-11-09T08:20:23.110Z,7.91
2022-11-09T08:23:27.706Z,7.98
2022-11-09T08:26:31.069Z,7.99
2022-11-09T08:29:34.795Z,7.97
2022-11-09T08:32:37.954Z,7.95
2022-11-09T08:35:41.440Z,7.96
2022-11-09T08:38:45.794Z,8.02
2022-11-09T08:41:49.147Z,8.09
2022-11-09T08:44:51.991Z,8.09
2022-11-09T08:47:59.643Z,8.11
2022-11-09T08:51:02.626Z,8.19
2022-11-09T08:54:11.424Z,8.22
2022-11-09T08:57:13.940Z,8.25
2022-11-09T09:00:17.862Z,8.23
2022-11-09T09:03:27.083Z,8.28
2022-11-09T09:06:31.460Z,8.30
2022-11-09T09:09:37.894Z,8.35
2022-11-09T09:12:40.896Z,8.40
2022-11-09T09:15:43.664Z,8.42
2022-11-09T09:18:48.986Z,8.46
2022-11-09T09:21:52.736Z,8.50
2022-11-09T09:24:56.732Z,8.55
2022-11-09T09:28:01.863Z,8.57
2022-11-09T09:31:14.340Z,8.65
2022-11-09T09:34:20.743Z,8.70
2022-11-09T09:37:23.918Z,8.67
2022-11-09T09:40:34.969Z,8.67
2022-11-09T09:43:43.867Z,8.70
2022-11-09T09:46:56.635Z,8.71
2022-11-09T09:50:04.551Z,8.79
2022-11-09T09:53:24.115Z,8.89
2022-11-09T09:56:41.795Z,8.91
2022-11-09T09:59:55.821Z,8.94
2022-11-09T10:03:02.101Z,8.96
2022-11-09T10:06:33.148Z,8.94
2022-11-09T10:10:09.680Z,9.05
2022-11-09T10:13:39.638Z,9.03
2022-11-09T10:16:47.167Z,9.09
2022-11-09T10:20:01.926Z,9.08
2022-11-09T10:23:20.141Z,9.12
2022-11-09T10:26:40.501Z,9.16
2022-11-09T10:29:47.682Z,9.20
2022-11-09T10:32:55.634Z,9.19
2022-11-09T10:36:19.264Z,9.21
2022-11-09T10:39:29.017Z,9.24
2022-11-09T10:42:59.918Z,9.24
2022-11-09T10:46:24.762Z,9.32
2022-11-09T10:49:46.676Z,9.33
2022-11-09T10:53:19.840Z,9.30
2022-11-09T10:57:05.626Z,9.33
2022-11-09T11:00:40.536Z,9.32
2022-11-09T11:04:21.596Z,9.36
2022-11-09T11:07:46.591Z,9.39
2022-11-09T11:11:36.927Z,9.39
2022-11-09T11:14:59.372Z,9.43
2022-11-09T11:18:27.143Z,9.49
2022-11-09T11:22:15.523Z,9.48
2022-11-09T11:25:58.493Z,9.54
2022-11-09T11:29:34.646Z,9.54
2022-11-09T11:32:57.836Z,9.52
2022-11-09T11:36:43.220Z,9.49
2022-11-09T11:40:10.591Z,9.48
2022-11-09T11:44:03.713Z,9.54
2022-11-09T11:48:24.061Z,9.62
2022-11-09T11:52:15.626Z,9.60
2022-11-09T11:56:15.914Z,9.61
2022-11-09T11:59:52.369Z,9.52
2022-11-09T12:03:24.158Z,9.52
2022-11-09T12:06:54.053Z,9.56
2022-11-09T12:10:48.856Z,9.60
2022-11-09T12:19:08.053Z,10.25
2022-11-09T12:22:55.034Z,10.25
2022-11-09T12:26:24.215Z,9.60
2022-11-09T12:30:15.180Z,9.58
2022-11-09T12:33:46.142Z,9.60
2022-11-09T12:37:18.240Z,9.62
2022-11-09T12:40:56.088Z,9.69
2022-11-09T12:44:25.695Z,9.62
2022-11-09T12:47:55.701Z,9.67
2022-11-09T12:51:19.259Z,9.72
2022-11-09T12:54:45.418Z,9.77
2022-11-09T12:58:09.058Z,9.72
2022-11-09T13:01:35.178Z,9.70
2022-11-09T13:05:01.685Z,9.66
2022-11-09T13:08:32.033Z,9.74
2022-11-09T13:11:57.256Z,9.75
2022-11-09T13:15:28.088Z,9.82
2022-11-09T13:18:53.138Z,9.80
2022-11-09T13:22:22.013Z,9.73
2022-11-09T13:25:44.551Z,9.66
2022-11-09T13:29:24.488Z,9.63
2022-11-09T13:33:06.974Z,9.61
2022-11-09T13:36:29.678Z,9.57
2022-11-09T13:39:53.299Z,9.60
2022-11-09T13:44:07.468Z,9.60
2022-11-09T13:47:41.039Z,9.59
2022-11-09T13:51:21.980Z,9.57
2022-11-09T13:54:54.642Z,9.53
2022-11-09T13:58:40.251Z,9.51
2022-11-09T14:02:03.497Z,9.49
2022-11-09T14:05:29.081Z,9.48
2022-11-09T14:08:52.032Z,9.47
2022-11-09T14:12:26.529Z,9.48
2022-11-09T14:16:26.105Z,9.47
2022-11-09T14:20:11.988Z,9.46
2022-11-09T14:23:34.310Z,9.43
2022-11-09T14:27:10.240Z,9.43
2022-11-09T14:30:34.034Z,9.44
2022-11-09T14:34:07.237Z,9.42
2022-11-09T14:37:32.059Z,9.44
2022-11-09T14:40:55.141Z,9.42
2022-11-09T14:44:35.989Z,9.43
2022-11-09T14:48:24.585Z,9.41
2022-11-09T14:51:52.524Z,9.42
2022-11-09T14:55:23.871Z,9.44
2022-11-09T14:58:53.598Z,9.42
2022-11-09T15:02:19.382Z,9.43
2022-11-09T15:05:47.118Z,9.41
2022-11-09T15:09:21.482Z,9.38
2022-11-09T15:12:51.202Z,9.41
2022-11-09T15:16:25.107Z,9.40
2022-11-09T15:20:03.047Z,9.39
2022-11-09T15:23:40.047Z,9.36
2022-11-09T15:27:02.352Z,9.37
2022-11-09T15:30:45.467Z,9.35
2022-11-09T15:34:26.070Z,9.33
2022-11-09T15:37:55.841Z,9.33
2022-11-09T15:41:25.313Z,9.35
2022-11-09T15:45:06.045Z,9.32
2022-11-09T15:48:40.029Z,9.28
2022-11-09T15:52:14.625Z,9.26
2022-11-09T15:55:36.591Z,9.26
2022-11-09T15:58:59.281Z,9.27
2022-11-09T16:02:22.400Z,9.23
2022-11-09T16:05:49.139Z,9.25
2022-11-09T16:09:13.107Z,9.24
2022-11-09T16:12:50.972Z,9.20
2022-11-09T16:16:21.981Z,9.21
2022-11-09T16:19:48.114Z,9.18
2022-11-09T16:23:16.020Z,9.18
2022-11-09T16:26:52.073Z,9.16
2022-11-09T16:30:16.374Z,9.17
2022-11-09T16:33:43.474Z,9.17
2022-11-09T16:37:13.138Z,9.17
2022-11-09T16:40:48.026Z,9.17
2022-11-09T16:44:32.022Z,9.18
2022-11-09T16:47:59.082Z,9.17
2022-11-09T16:51:31.067Z,9.16
2022-11-09T16:54:59.699Z,9.19
2022-11-09T16:58:23.231Z,9.20
2022-11-09T17:01:55.299Z,9.20
2022-11-09T17:05:24.501Z,9.25
2022-11-09T17:08:51.046Z,9.25
2022-11-09T17:12:20.916Z,9.24
2022-11-09T17:15:52.170Z,9.24
2022-11-09T17:19:14.677Z,9.26
2022-11-09T17:22:43.112Z,9.25
2022-11-09T17:26:16.349Z,9.25
2022-11-09T17:29:39.254Z,9.31
2022-11-09T17:33:03.028Z,9.30
2022-11-09T17:37:02.370Z,9.30
2022-11-09T17:40:27.963Z,9.31
2022-11-09T17:43:54.040Z,9.33
2022-11-09T17:47:20.317Z,9.33
2022-11-09T17:50:46.049Z,9.32
2022-11-09T17:54:11.044Z,9.33
2022-11-09T17:57:37.064Z,9.36
2022-11-09T18:01:13.052Z,9.34
2022-11-09T18:04:46.398Z,9.35
2022-11-09T18:08:16.525Z,9.35
2022-11-09T18:11:39.057Z,9.35
2022-11-09T18:15:07.090Z,9.34
2022-11-09T18:18:31.824Z,9.33
2022-11-09T18:22:00.099Z,9.30
2022-11-09T18:25:29.058Z,9.26
2022-11-09T18:28:57.801Z,9.20
2022-11-09T18:32:32.219Z,9.16
2022-11-09T18:36:08.050Z,9.10
2022-11-09T18:39:34.108Z,9.06
2022-11-09T18:43:02.451Z,9.05
2022-11-09T18:46:41.040Z,9.06
2022-11-09T18:50:05.877Z,9.10
2022-11-09T18:53:43.175Z,9.13
2022-11-09T18:57:18.734Z,9.14
2022-11-09T19:00:59.188Z,9.14
2022-11-09T19:04:21.717Z,9.18
2022-11-09T19:07:47.804Z,9.21
2022-11-09T19:11:15.289Z,9.19
2022-11-09T19:14:42.067Z,9.17
2022-11-09T19:18:11.374Z,9.16
2022-11-09T19:21:52.684Z,9.13
2022-11-09T19:25:17.404Z,9.08
2022-11-09T19:28:45.923Z,9.05
2022-11-09T19:32:08.392Z,9.03
2022-11-09T19:35:41.081Z,8.99
2022-11-09T19:39:05.439Z,8.98
2022-11-09T19:42:28.111Z,9.02
2022-11-09T19:46:02.226Z,9.04
2022-11-09T19:49:36.044Z,9.04
2022-11-09T19:53:01.029Z,9.07
2022-11-09T19:56:32.702Z,9.06
2022-11-09T19:59:56.408Z,9.10
2022-11-09T20:03:19.615Z,9.12
2022-11-09T20:06:43.026Z,9.08
2022-11-09T20:10:08.942Z,9.08
2022-11-09T20:13:36.378Z,9.07
2022-11-09T20:17:09.281Z,9.06
2022-11-09T20:20:39.950Z,9.07
2022-11-09T20:24:04.080Z,9.09
2022-11-09T20:27:31.141Z,9.06
2022-11-09T20:31:02.989Z,9.10
2022-11-09T20:34:32.055Z,9.12
2022-11-09T20:37:54.337Z,9.14
2022-11-09T20:41:25.740Z,9.16
2022-11-09T20:44:52.306Z,9.18
2022-11-09T20:48:47.080Z,9.22
2022-11-09T20:52:06.945Z,9.24
2022-11-09T20:55:32.261Z,9.30
2022-11-09T20:58:57.039Z,9.29
2022-11-09T21:02:21.242Z,9.28
2022-11-09T21:05:49.163Z,9.26
2022-11-09T21:09:19.188Z,9.27
2022-11-09T21:12:45.054Z,9.29
2022-11-09T21:16:13.867Z,9.35
2022-11-09T21:19:35.777Z,9.33
2022-11-09T21:23:13.596Z,9.33
2022-11-09T21:26:56.037Z,9.35
2022-11-09T21:30:19.706Z,9.37
2022-11-09T21:33:42.539Z,9.37
2022-11-09T21:37:05.346Z,9.36
2022-11-09T21:40:27.042Z,9.38
2022-11-09T21:43:56.092Z,9.39
2022-11-09T21:47:18.400Z,9.38
2022-11-09T21:50:44.031Z,9.39
2022-11-09T21:54:07.191Z,9.41
2022-11-09T21:57:37.131Z,9.39
2022-11-09T22:01:02.975Z,9.41
2022-11-09T22:04:28.100Z,9.40
2022-11-09T22:08:03.054Z,9.38
2022-11-09T22:11:44.474Z,9.39
2022-11-09T22:15:28.643Z,9.41
2022-11-09T22:19:12.580Z,9.41
2022-11-09T22:22:34.995Z,9.43
2022-11-09T22:26:01.128Z,9.42
2022-11-09T22:29:24.214Z,9.41
2022-11-09T22:32:49.460Z,9.42
2022-11-09T22:36:13.259Z,9.44
2022-11-09T22:39:34.947Z,9.43
2022-11-09T22:42:56.945Z,9.45
2022-11-09T22:46:18.685Z,9.44
2022-11-09T22:49:39.725Z,9.45
2022-11-09T22:53:03.901Z,9.46
2022-11-09T22:56:25.263Z,9.49
2022-11-09T22:59:48.416Z,9.48
2022-11-09T23:03:11.481Z,9.49
2022-11-09T23:06:35.029Z,9.50
2022-11-09T23:09:57.051Z,9.52
2022-11-09T23:13:19.699Z,9.49
2022-11-09T23:16:42.276Z,9.53
2022-11-09T23:20:08.202Z,9.51
2022-11-09T23:23:28.802Z,9.49
2022-11-09T23:26:49.582Z,9.47
2022-11-09T23:30:11.802Z,9.46
2022-11-09T23:33:33.071Z,9.45
2022-11-09T23:36:54.237Z,9.46
2022-11-09T23:40:16.043Z,9.45
2022-11-09T23:43:37.666Z,9.48
2022-11-09T23:46:58.703Z,9.44
2022-11-09T23:50:20.822Z,9.47
2022-11-09T23:53:42.395Z,9.47
2022-11-09T23:57:03.990Z,9.50
